sensor_id;sensor_type;location;lat;lon;timestamp;P1;durP1;ratioP1;P2;durP2;ratioP2
65463;SDS011;52063;45.110;9.870;2023-02-28T00:01:16;2.73;;;1.80;;
65463;SDS011;52063;45.110;9.870;2023-02-28T00:03:42;2.65;;;1.83;;
65463;SDS011;52063;45.110;9.870;2023-02-28T00:06:07;2.73;;;2.00;;
65463;SDS011;52063;45.110;9.870;2023-02-28T00:08:34;3.25;;;2.00;;
65463;SDS011;52063;45.110;9.870;2023-02-28T00:11:04;2.47;;;1.98;;
65463;SDS011;52063;45.110;9.870;2023-02-28T00:13:31;2.17;;;1.97;;
65463;SDS011;52063;45.110;9.870;2023-02-28T00:16:03;3.60;;;1.88;;
65463;SDS011;52063;45.110;9.870;2023-02-28T00:18:30;3.30;;;2.28;;
65463;SDS011;52063;45.110;9.870;2023-02-28T00:20:56;2.80;;;2.00;;
65463;SDS011;52063;45.110;9.870;2023-02-28T00:23:22;3.28;;;1.90;;
65463;SDS011;52063;45.110;9.870;2023-02-28T00:25:47;4.30;;;1.90;;
65463;SDS011;52063;45.110;9.870;2023-02-28T00:28:13;2.35;;;1.80;;
65463;SDS011;52063;45.110;9.870;2023-02-28T00:30:39;3.53;;;2.00;;
65463;SDS011;52063;45.110;9.870;2023-02-28T00:33:04;3.00;;;2.30;;
65463;SDS011;52063;45.110;9.870;2023-02-28T00:35:30;2.57;;;1.97;;
65463;SDS011;52063;45.110;9.870;2023-02-28T00:37:55;2.43;;;2.10;;
65463;SDS011;52063;45.110;9.870;2023-02-28T00:40:21;2.45;;;1.90;;
65463;SDS011;52063;45.110;9.870;2023-02-28T00:42:46;4.83;;;2.13;;
65463;SDS011;52063;45.110;9.870;2023-02-28T00:45:11;3.07;;;1.80;;
65463;SDS011;52063;45.110;9.870;2023-02-28T00:47:37;2.03;;;1.70;;
65463;SDS011;52063;45.110;9.870;2023-02-28T00:50:03;2.43;;;1.87;;
65463;SDS011;52063;45.110;9.870;2023-02-28T00:52:29;3.00;;;2.15;;
65463;SDS011;52063;45.110;9.870;2023-02-28T00:54:55;2.97;;;2.20;;
65463;SDS011;52063;45.110;9.870;2023-02-28T00:57:20;2.42;;;1.90;;
65463;SDS011;52063;45.110;9.870;2023-02-28T00:59:47;2.10;;;1.90;;
65463;SDS011;52063;45.110;9.870;2023-02-28T01:02:12;3.35;;;2.15;;
65463;SDS011;52063;45.110;9.870;2023-02-28T01:04:38;2.80;;;2.20;;
65463;SDS011;52063;45.110;9.870;2023-02-28T01:07:03;4.13;;;2.03;;
65463;SDS011;52063;45.110;9.870;2023-02-28T01:09:29;2.60;;;1.92;;
65463;SDS011;52063;45.110;9.870;2023-02-28T01:11:54;5.17;;;1.90;;
65463;SDS011;52063;45.110;9.870;2023-02-28T01:14:20;2.27;;;1.90;;
65463;SDS011;52063;45.110;9.870;2023-02-28T01:16:45;2.95;;;1.98;;
65463;SDS011;52063;45.110;9.870;2023-02-28T01:19:11;2.97;;;2.10;;
65463;SDS011;52063;45.110;9.870;2023-02-28T01:21:37;3.78;;;1.92;;
65463;SDS011;52063;45.110;9.870;2023-02-28T01:24:04;2.90;;;2.05;;
65463;SDS011;52063;45.110;9.870;2023-02-28T01:26:30;3.87;;;1.87;;
65463;SDS011;52063;45.110;9.870;2023-02-28T01:28:56;2.97;;;2.13;;
65463;SDS011;52063;45.110;9.870;2023-02-28T01:31:22;3.78;;;2.00;;
65463;SDS011;52063;45.110;9.870;2023-02-28T01:33:48;2.42;;;1.95;;
65463;SDS011;52063;45.110;9.870;2023-02-28T01:36:15;2.70;;;1.90;;
65463;SDS011;52063;45.110;9.870;2023-02-28T01:38:41;2.58;;;1.75;;
65463;SDS011;52063;45.110;9.870;2023-02-28T01:41:07;2.60;;;2.00;;
65463;SDS011;52063;45.110;9.870;2023-02-28T01:46:08;2.80;;;2.30;;
65463;SDS011;52063;45.110;9.870;2023-02-28T01:48:35;4.72;;;2.25;;
65463;SDS011;52063;45.110;9.870;2023-02-28T01:51:05;2.63;;;1.75;;
65463;SDS011;52063;45.110;9.870;2023-02-28T01:53:36;3.53;;;2.20;;
65463;SDS011;52063;45.110;9.870;2023-02-28T01:56:05;5.07;;;2.28;;
65463;SDS011;52063;45.110;9.870;2023-02-28T01:58:32;2.83;;;1.97;;
65463;SDS011;52063;45.110;9.870;2023-02-28T02:00:58;2.95;;;2.10;;
65463;SDS011;52063;45.110;9.870;2023-02-28T02:03:25;2.03;;;1.83;;
65463;SDS011;52063;45.110;9.870;2023-02-28T02:05:50;2.80;;;2.27;;
65463;SDS011;52063;45.110;9.870;2023-02-28T02:08:20;2.28;;;2.08;;
65463;SDS011;52063;45.110;9.870;2023-02-28T02:10:51;3.97;;;1.90;;
65463;SDS011;52063;45.110;9.870;2023-02-28T02:31:20;2.38;;;2.00;;
65463;SDS011;52063;45.110;9.870;2023-02-28T02:39:30;3.00;;;1.90;;
65463;SDS011;52063;45.110;9.870;2023-02-28T02:42:00;2.40;;;1.75;;
65463;SDS011;52063;45.110;9.870;2023-02-28T02:44:28;2.90;;;1.90;;
65463;SDS011;52063;45.110;9.870;2023-02-28T02:47:30;2.25;;;2.05;;
65463;SDS011;52063;45.110;9.870;2023-02-28T02:49:51;2.58;;;1.98;;
65463;SDS011;52063;45.110;9.870;2023-02-28T02:52:18;3.27;;;1.90;;
65463;SDS011;52063;45.110;9.870;2023-02-28T02:54:46;2.85;;;2.05;;
65463;SDS011;52063;45.110;9.870;2023-02-28T02:57:58;3.72;;;1.88;;
65463;SDS011;52063;45.110;9.870;2023-02-28T03:00:07;2.42;;;1.73;;
65463;SDS011;52063;45.110;9.870;2023-02-28T03:02:34;2.70;;;2.00;;
65463;SDS011;52063;45.110;9.870;2023-02-28T03:05:03;2.83;;;1.80;;
65463;SDS011;52063;45.110;9.870;2023-02-28T03:07:31;3.25;;;1.98;;
65463;SDS011;52063;45.110;9.870;2023-02-28T03:09:57;1.95;;;1.75;;
65463;SDS011;52063;45.110;9.870;2023-02-28T03:12:23;2.67;;;2.03;;
65463;SDS011;52063;45.110;9.870;2023-02-28T03:15:18;3.53;;;2.20;;
65463;SDS011;52063;45.110;9.870;2023-02-28T03:20:38;2.33;;;2.13;;
65463;SDS011;52063;45.110;9.870;2023-02-28T03:23:16;4.18;;;2.08;;
65463;SDS011;52063;45.110;9.870;2023-02-28T03:25:53;2.63;;;1.90;;
65463;SDS011;52063;45.110;9.870;2023-02-28T03:33:42;2.83;;;1.90;;
65463;SDS011;52063;45.110;9.870;2023-02-28T03:36:29;2.00;;;1.80;;
65463;SDS011;52063;45.110;9.870;2023-02-28T03:39:03;2.60;;;2.00;;
65463;SDS011;52063;45.110;9.870;2023-02-28T03:41:38;2.13;;;1.80;;
65463;SDS011;52063;45.110;9.870;2023-02-28T03:44:12;2.63;;;1.90;;
65463;SDS011;52063;45.110;9.870;2023-02-28T03:46:42;2.13;;;1.70;;
65463;SDS011;52063;45.110;9.870;2023-02-28T03:49:16;2.78;;;1.83;;
65463;SDS011;52063;45.110;9.870;2023-02-28T03:51:47;2.70;;;2.27;;
65463;SDS011;52063;45.110;9.870;2023-02-28T03:54:24;2.33;;;2.13;;
65463;SDS011;52063;45.110;9.870;2023-02-28T03:56:55;2.40;;;1.95;;
65463;SDS011;52063;45.110;9.870;2023-02-28T03:59:31;2.15;;;1.90;;
65463;SDS011;52063;45.110;9.870;2023-02-28T04:01:59;2.33;;;1.70;;
65463;SDS011;52063;45.110;9.870;2023-02-28T04:04:25;2.77;;;1.70;;
65463;SDS011;52063;45.110;9.870;2023-02-28T04:06:51;2.70;;;1.60;;
65463;SDS011;52063;45.110;9.870;2023-02-28T04:09:17;2.17;;;1.90;;
65463;SDS011;52063;45.110;9.870;2023-02-28T04:11:50;2.67;;;1.95;;
65463;SDS011;52063;45.110;9.870;2023-02-28T04:14:21;2.17;;;1.97;;
65463;SDS011;52063;45.110;9.870;2023-02-28T04:16:46;2.88;;;2.03;;
65463;SDS011;52063;45.110;9.870;2023-02-28T04:19:12;2.22;;;1.90;;
65463;SDS011;52063;45.110;9.870;2023-02-28T04:21:40;2.13;;;1.90;;
65463;SDS011;52063;45.110;9.870;2023-02-28T04:24:08;2.50;;;2.30;;
65463;SDS011;52063;45.110;9.870;2023-02-28T04:26:39;2.92;;;2.08;;
65463;SDS011;52063;45.110;9.870;2023-02-28T04:29:06;2.25;;;1.88;;
65463;SDS011;52063;45.110;9.870;2023-02-28T04:31:32;2.42;;;2.03;;
65463;SDS011;52063;45.110;9.870;2023-02-28T04:33:58;3.45;;;2.35;;
65463;SDS011;52063;45.110;9.870;2023-02-28T04:36:24;2.20;;;2.00;;
65463;SDS011;52063;45.110;9.870;2023-02-28T04:38:49;2.95;;;1.90;;
65463;SDS011;52063;45.110;9.870;2023-02-28T04:41:15;2.47;;;2.27;;
65463;SDS011;52063;45.110;9.870;2023-02-28T04:43:41;2.53;;;2.00;;
65463;SDS011;52063;45.110;9.870;2023-02-28T04:46:07;2.10;;;1.90;;
65463;SDS011;52063;45.110;9.870;2023-02-28T04:48:34;2.67;;;2.00;;
65463;SDS011;52063;45.110;9.870;2023-02-28T04:51:04;2.35;;;2.10;;
65463;SDS011;52063;45.110;9.870;2023-02-28T04:53:31;2.75;;;1.83;;
65463;SDS011;52063;45.110;9.870;2023-02-28T04:55:57;2.72;;;1.95;;
65463;SDS011;52063;45.110;9.870;2023-02-28T04:58:23;3.47;;;2.13;;
65463;SDS011;52063;45.110;9.870;2023-02-28T05:00:49;2.30;;;2.10;;
65463;SDS011;52063;45.110;9.870;2023-02-28T05:03:15;1.73;;;1.63;;
65463;SDS011;52063;45.110;9.870;2023-02-28T05:05:40;2.20;;;2.00;;
65463;SDS011;52063;45.110;9.870;2023-02-28T05:08:06;2.47;;;2.03;;
65463;SDS011;52063;45.110;9.870;2023-02-28T05:10:31;2.15;;;1.88;;
65463;SDS011;52063;45.110;9.870;2023-02-28T05:12:57;2.50;;;1.80;;
65463;SDS011;52063;45.110;9.870;2023-02-28T05:15:23;2.50;;;2.10;;
65463;SDS011;52063;45.110;9.870;2023-02-28T05:17:49;2.57;;;2.00;;
65463;SDS011;52063;45.110;9.870;2023-02-28T05:20:14;3.03;;;2.10;;
65463;SDS011;52063;45.110;9.870;2023-02-28T05:22:40;3.80;;;2.53;;
65463;SDS011;52063;45.110;9.870;2023-02-28T05:25:06;3.78;;;1.70;;
65463;SDS011;52063;45.110;9.870;2023-02-28T05:27:32;2.10;;;1.90;;
65463;SDS011;52063;45.110;9.870;2023-02-28T05:29:58;3.38;;;2.00;;
65463;SDS011;52063;45.110;9.870;2023-02-28T05:32:24;1.83;;;1.48;;
65463;SDS011;52063;45.110;9.870;2023-02-28T05:34:49;3.90;;;1.88;;
65463;SDS011;52063;45.110;9.870;2023-02-28T05:37:15;2.13;;;1.80;;
65463;SDS011;52063;45.110;9.870;2023-02-28T05:39:41;2.30;;;1.70;;
65463;SDS011;52063;45.110;9.870;2023-02-28T05:42:07;3.30;;;2.08;;
65463;SDS011;52063;45.110;9.870;2023-02-28T05:44:35;1.80;;;1.70;;
65463;SDS011;52063;45.110;9.870;2023-02-28T05:47:01;4.03;;;1.98;;
65463;SDS011;52063;45.110;9.870;2023-02-28T05:49:26;2.77;;;1.60;;
65463;SDS011;52063;45.110;9.870;2023-02-28T05:51:51;2.00;;;1.63;;
65463;SDS011;52063;45.110;9.870;2023-02-28T05:54:17;2.13;;;1.70;;
65463;SDS011;52063;45.110;9.870;2023-02-28T05:56:42;2.27;;;1.73;;
65463;SDS011;52063;45.110;9.870;2023-02-28T05:59:09;2.72;;;1.63;;
65463;SDS011;52063;45.110;9.870;2023-02-28T06:04:01;2.60;;;2.17;;
65463;SDS011;52063;45.110;9.870;2023-02-28T06:06:28;3.03;;;1.88;;
65463;SDS011;52063;45.110;9.870;2023-02-28T06:08:54;3.28;;;1.70;;
65463;SDS011;52063;45.110;9.870;2023-02-28T06:11:20;2.33;;;1.80;;
65463;SDS011;52063;45.110;9.870;2023-02-28T06:13:46;4.13;;;2.13;;
65463;SDS011;52063;45.110;9.870;2023-02-28T06:16:12;3.15;;;1.65;;
65463;SDS011;52063;45.110;9.870;2023-02-28T06:18:38;2.73;;;2.03;;
65463;SDS011;52063;45.110;9.870;2023-02-28T06:21:03;2.55;;;1.98;;
65463;SDS011;52063;45.110;9.870;2023-02-28T06:23:29;2.97;;;2.10;;
65463;SDS011;52063;45.110;9.870;2023-02-28T06:25:55;4.00;;;2.00;;
65463;SDS011;52063;45.110;9.870;2023-02-28T06:28:23;2.30;;;2.03;;
65463;SDS011;52063;45.110;9.870;2023-02-28T06:30:50;3.10;;;2.20;;
65463;SDS011;52063;45.110;9.870;2023-02-28T06:33:16;2.40;;;1.90;;
65463;SDS011;52063;45.110;9.870;2023-02-28T06:35:46;2.90;;;2.13;;
65463;SDS011;52063;45.110;9.870;2023-02-28T06:38:12;2.65;;;1.90;;
65463;SDS011;52063;45.110;9.870;2023-02-28T06:40:37;3.00;;;2.07;;
65463;SDS011;52063;45.110;9.870;2023-02-28T06:43:03;3.40;;;2.80;;
65463;SDS011;52063;45.110;9.870;2023-02-28T06:45:29;2.95;;;2.40;;
65463;SDS011;52063;45.110;9.870;2023-02-28T06:47:54;2.80;;;2.17;;
65463;SDS011;52063;45.110;9.870;2023-02-28T06:50:20;2.58;;;2.33;;
65463;SDS011;52063;45.110;9.870;2023-02-28T06:52:45;6.40;;;2.17;;
65463;SDS011;52063;45.110;9.870;2023-02-28T06:55:11;2.83;;;2.55;;
65463;SDS011;52063;45.110;9.870;2023-02-28T06:57:36;3.37;;;2.57;;
65463;SDS011;52063;45.110;9.870;2023-02-28T07:00:04;2.90;;;2.60;;
65463;SDS011;52063;45.110;9.870;2023-02-28T07:02:32;2.72;;;2.10;;
65463;SDS011;52063;45.110;9.870;2023-02-28T07:04:58;2.92;;;2.30;;
65463;SDS011;52063;45.110;9.870;2023-02-28T07:07:24;3.03;;;2.67;;
65463;SDS011;52063;45.110;9.870;2023-02-28T07:09:49;3.13;;;2.40;;
65463;SDS011;52063;45.110;9.870;2023-02-28T07:12:15;3.17;;;2.63;;
65463;SDS011;52063;45.110;9.870;2023-02-28T07:14:41;3.25;;;2.40;;
65463;SDS011;52063;45.110;9.870;2023-02-28T07:17:07;3.73;;;2.50;;
65463;SDS011;52063;45.110;9.870;2023-02-28T07:19:33;3.30;;;2.28;;
65463;SDS011;52063;45.110;9.870;2023-02-28T07:21:59;3.10;;;2.40;;
65463;SDS011;52063;45.110;9.870;2023-02-28T07:24:25;2.90;;;2.55;;
65463;SDS011;52063;45.110;9.870;2023-02-28T07:26:53;3.53;;;2.40;;
65463;SDS011;52063;45.110;9.870;2023-02-28T07:29:18;3.23;;;2.50;;
65463;SDS011;52063;45.110;9.870;2023-02-28T07:31:44;3.63;;;2.40;;
65463;SDS011;52063;45.110;9.870;2023-02-28T07:34:09;4.63;;;2.80;;
65463;SDS011;52063;45.110;9.870;2023-02-28T07:36:35;2.93;;;2.50;;
65463;SDS011;52063;45.110;9.870;2023-02-28T07:39:00;3.00;;;2.50;;
65463;SDS011;52063;45.110;9.870;2023-02-28T07:41:26;4.05;;;2.40;;
65463;SDS011;52063;45.110;9.870;2023-02-28T07:43:53;2.93;;;2.50;;
65463;SDS011;52063;45.110;9.870;2023-02-28T07:46:20;4.28;;;2.63;;
65463;SDS011;52063;45.110;9.870;2023-02-28T07:48:46;4.07;;;2.25;;
65463;SDS011;52063;45.110;9.870;2023-02-28T07:51:11;2.47;;;2.07;;
65463;SDS011;52063;45.110;9.870;2023-02-28T07:53:37;2.43;;;2.17;;
65463;SDS011;52063;45.110;9.870;2023-02-28T07:56:02;3.05;;;2.30;;
65463;SDS011;52063;45.110;9.870;2023-02-28T07:58:28;3.07;;;2.03;;
65463;SDS011;52063;45.110;9.870;2023-02-28T08:00:54;2.85;;;2.10;;
65463;SDS011;52063;45.110;9.870;2023-02-28T08:03:21;2.95;;;2.00;;
65463;SDS011;52063;45.110;9.870;2023-02-28T08:05:47;2.85;;;2.17;;
65463;SDS011;52063;45.110;9.870;2023-02-28T08:08:13;5.50;;;2.33;;
65463;SDS011;52063;45.110;9.870;2023-02-28T08:10:39;2.28;;;1.95;;
65463;SDS011;52063;45.110;9.870;2023-02-28T08:13:05;2.40;;;2.20;;
65463;SDS011;52063;45.110;9.870;2023-02-28T08:15:30;2.42;;;1.85;;
65463;SDS011;52063;45.110;9.870;2023-02-28T08:17:56;3.30;;;2.00;;
65463;SDS011;52063;45.110;9.870;2023-02-28T08:20:22;2.57;;;1.93;;
65463;SDS011;52063;45.110;9.870;2023-02-28T08:22:48;2.17;;;1.92;;
65463;SDS011;52063;45.110;9.870;2023-02-28T08:25:14;2.97;;;2.30;;
65463;SDS011;52063;45.110;9.870;2023-02-28T08:27:39;2.73;;;2.30;;
65463;SDS011;52063;45.110;9.870;2023-02-28T08:30:05;3.47;;;2.27;;
65463;SDS011;52063;45.110;9.870;2023-02-28T08:32:34;3.63;;;2.60;;
65463;SDS011;52063;45.110;9.870;2023-02-28T08:34:59;3.67;;;2.20;;
65463;SDS011;52063;45.110;9.870;2023-02-28T08:37:25;2.53;;;2.00;;
65463;SDS011;52063;45.110;9.870;2023-02-28T08:39:50;3.07;;;2.20;;
65463;SDS011;52063;45.110;9.870;2023-02-28T08:42:16;2.80;;;2.33;;
65463;SDS011;52063;45.110;9.870;2023-02-28T08:44:41;3.13;;;2.47;;
65463;SDS011;52063;45.110;9.870;2023-02-28T08:47:07;2.50;;;2.20;;
65463;SDS011;52063;45.110;9.870;2023-02-28T08:49:32;2.73;;;2.47;;
65463;SDS011;52063;45.110;9.870;2023-02-28T08:51:58;2.53;;;2.13;;
65463;SDS011;52063;45.110;9.870;2023-02-28T08:54:23;2.80;;;2.40;;
65463;SDS011;52063;45.110;9.870;2023-02-28T08:56:49;3.63;;;2.23;;
65463;SDS011;52063;45.110;9.870;2023-02-28T08:59:15;7.47;;;4.10;;
65463;SDS011;52063;45.110;9.870;2023-02-28T09:01:40;7.10;;;4.60;;
65463;SDS011;52063;45.110;9.870;2023-02-28T09:04:06;5.47;;;4.95;;
65463;SDS011;52063;45.110;9.870;2023-02-28T09:06:33;7.82;;;5.50;;
65463;SDS011;52063;45.110;9.870;2023-02-28T09:08:59;5.23;;;4.73;;
65463;SDS011;52063;45.110;9.870;2023-02-28T09:11:26;6.95;;;4.78;;
65463;SDS011;52063;45.110;9.870;2023-02-28T09:13:52;12.43;;;4.80;;
65463;SDS011;52063;45.110;9.870;2023-02-28T09:16:18;7.00;;;5.23;;
65463;SDS011;52063;45.110;9.870;2023-02-28T09:18:43;5.85;;;4.43;;
65463;SDS011;52063;45.110;9.870;2023-02-28T09:21:11;5.90;;;5.00;;
65463;SDS011;52063;45.110;9.870;2023-02-28T09:23:42;8.10;;;5.00;;
65463;SDS011;52063;45.110;9.870;2023-02-28T09:26:12;6.00;;;4.93;;
65463;SDS011;52063;45.110;9.870;2023-02-28T09:28:39;5.65;;;4.30;;
65463;SDS011;52063;45.110;9.870;2023-02-28T09:31:04;6.57;;;4.80;;
65463;SDS011;52063;45.110;9.870;2023-02-28T09:33:30;6.07;;;4.33;;
65463;SDS011;52063;45.110;9.870;2023-02-28T09:35:59;5.57;;;4.90;;
65463;SDS011;52063;45.110;9.870;2023-02-28T09:38:25;7.47;;;4.27;;
65463;SDS011;52063;45.110;9.870;2023-02-28T09:40:57;5.57;;;4.40;;
65463;SDS011;52063;45.110;9.870;2023-02-28T09:43:26;8.80;;;5.18;;
65463;SDS011;52063;45.110;9.870;2023-02-28T09:48:25;8.43;;;4.10;;
65463;SDS011;52063;45.110;9.870;2023-02-28T09:51:00;5.70;;;4.37;;
65463;SDS011;52063;45.110;9.870;2023-02-28T09:53:30;6.43;;;4.88;;
65463;SDS011;52063;45.110;9.870;2023-02-28T09:58:28;6.67;;;4.60;;
65463;SDS011;52063;45.110;9.870;2023-02-28T10:01:03;6.57;;;4.90;;
65463;SDS011;52063;45.110;9.870;2023-02-28T10:06:28;7.25;;;4.60;;
65463;SDS011;52063;45.110;9.870;2023-02-28T10:09:00;7.10;;;4.93;;
65463;SDS011;52063;45.110;9.870;2023-02-28T10:11:29;9.20;;;4.78;;
65463;SDS011;52063;45.110;9.870;2023-02-28T10:14:01;7.72;;;4.93;;
65463;SDS011;52063;45.110;9.870;2023-02-28T10:16:32;9.80;;;4.85;;
65463;SDS011;52063;45.110;9.870;2023-02-28T10:19:03;7.13;;;5.22;;
65463;SDS011;52063;45.110;9.870;2023-02-28T10:21:36;10.03;;;4.87;;
65463;SDS011;52063;45.110;9.870;2023-02-28T10:24:05;8.18;;;4.60;;
65463;SDS011;52063;45.110;9.870;2023-02-28T10:26:40;5.53;;;4.53;;
65463;SDS011;52063;45.110;9.870;2023-02-28T10:29:09;8.55;;;5.03;;
65463;SDS011;52063;45.110;9.870;2023-02-28T10:31:35;8.13;;;4.68;;
65463;SDS011;52063;45.110;9.870;2023-02-28T10:34:00;5.97;;;4.90;;
65463;SDS011;52063;45.110;9.870;2023-02-28T10:36:26;5.28;;;4.70;;
65463;SDS011;52063;45.110;9.870;2023-02-28T10:38:53;8.47;;;4.57;;
65463;SDS011;52063;45.110;9.870;2023-02-28T10:41:29;8.75;;;4.80;;
65463;SDS011;52063;45.110;9.870;2023-02-28T10:44:12;5.80;;;4.70;;
65463;SDS011;52063;45.110;9.870;2023-02-28T10:46:45;5.53;;;4.47;;
65463;SDS011;52063;45.110;9.870;2023-02-28T10:49:15;6.73;;;4.63;;
65463;SDS011;52063;45.110;9.870;2023-02-28T10:51:46;6.88;;;4.50;;
65463;SDS011;52063;45.110;9.870;2023-02-28T10:54:19;6.07;;;4.80;;
65463;SDS011;52063;45.110;9.870;2023-02-28T10:57:05;6.27;;;4.97;;
65463;SDS011;52063;45.110;9.870;2023-02-28T10:59:42;6.43;;;4.82;;
65463;SDS011;52063;45.110;9.870;2023-02-28T11:05:30;6.25;;;4.38;;
65463;SDS011;52063;45.110;9.870;2023-02-28T11:08:10;8.70;;;5.78;;
65463;SDS011;52063;45.110;9.870;2023-02-28T11:10:38;7.27;;;5.40;;
65463;SDS011;52063;45.110;9.870;2023-02-28T11:13:04;6.88;;;5.43;;
65463;SDS011;52063;45.110;9.870;2023-02-28T11:15:31;9.32;;;5.57;;
65463;SDS011;52063;45.110;9.870;2023-02-28T11:20:50;5.65;;;5.05;;
65463;SDS011;52063;45.110;9.870;2023-02-28T11:23:17;7.18;;;5.07;;
65463;SDS011;52063;45.110;9.870;2023-02-28T11:26:02;7.07;;;5.40;;
65463;SDS011;52063;45.110;9.870;2023-02-28T11:28:31;8.73;;;5.57;;
65463;SDS011;52063;45.110;9.870;2023-02-28T11:36:21;5.28;;;4.78;;
65463;SDS011;52063;45.110;9.870;2023-02-28T11:38:49;7.43;;;5.63;;
65463;SDS011;52063;45.110;9.870;2023-02-28T11:44:33;7.07;;;5.10;;
65463;SDS011;52063;45.110;9.870;2023-02-28T11:47:07;7.30;;;5.45;;
65463;SDS011;52063;45.110;9.870;2023-02-28T11:50:03;8.05;;;5.80;;
65463;SDS011;52063;45.110;9.870;2023-02-28T11:52:29;6.53;;;5.05;;
65463;SDS011;52063;45.110;9.870;2023-02-28T12:05:47;7.68;;;4.57;;
65463;SDS011;52063;45.110;9.870;2023-02-28T12:14:14;7.22;;;5.07;;
65463;SDS011;52063;45.110;9.870;2023-02-28T12:17:25;5.93;;;4.60;;
65463;SDS011;52063;45.110;9.870;2023-02-28T12:22:59;6.45;;;5.07;;
65463;SDS011;52063;45.110;9.870;2023-02-28T12:25:50;5.93;;;4.80;;
65463;SDS011;52063;45.110;9.870;2023-02-28T12:28:21;5.63;;;4.95;;
65463;SDS011;52063;45.110;9.870;2023-02-28T12:31:00;6.53;;;5.43;;
65463;SDS011;52063;45.110;9.870;2023-02-28T12:33:31;7.30;;;5.07;;
65463;SDS011;52063;45.110;9.870;2023-02-28T12:36:00;6.60;;;4.70;;
65463;SDS011;52063;45.110;9.870;2023-02-28T12:38:34;4.73;;;4.07;;
65463;SDS011;52063;45.110;9.870;2023-02-28T12:41:04;5.45;;;4.40;;
65463;SDS011;52063;45.110;9.870;2023-02-28T12:43:39;5.53;;;4.65;;
65463;SDS011;52063;45.110;9.870;2023-02-28T12:46:09;6.00;;;4.75;;
65463;SDS011;52063;45.110;9.870;2023-02-28T12:48:43;6.90;;;4.60;;
65463;SDS011;52063;45.110;9.870;2023-02-28T12:51:11;5.93;;;4.60;;
65463;SDS011;52063;45.110;9.870;2023-02-28T12:58:54;5.13;;;4.28;;
65463;SDS011;52063;45.110;9.870;2023-02-28T13:07:16;4.28;;;3.67;;
65463;SDS011;52063;45.110;9.870;2023-02-28T13:10:01;4.78;;;4.28;;
65463;SDS011;52063;45.110;9.870;2023-02-28T13:12:28;4.57;;;3.80;;
65463;SDS011;52063;45.110;9.870;2023-02-28T13:15:07;5.63;;;3.87;;
65463;SDS011;52063;45.110;9.870;2023-02-28T13:17:41;4.10;;;3.70;;
65463;SDS011;52063;45.110;9.870;2023-02-28T13:20:17;6.75;;;4.18;;
65463;SDS011;52063;45.110;9.870;2023-02-28T13:22:46;4.13;;;3.60;;
65463;SDS011;52063;45.110;9.870;2023-02-28T13:27:51;5.50;;;4.07;;
65463;SDS011;52063;45.110;9.870;2023-02-28T13:38:45;3.70;;;3.20;;
65463;SDS011;52063;45.110;9.870;2023-02-28T13:55:25;4.07;;;3.60;;
65463;SDS011;52063;45.110;9.870;2023-02-28T13:57:57;3.42;;;2.92;;
65463;SDS011;52063;45.110;9.870;2023-02-28T14:06:14;4.40;;;3.60;;
65463;SDS011;52063;45.110;9.870;2023-02-28T14:11:32;4.80;;;3.47;;
65463;SDS011;52063;45.110;9.870;2023-02-28T14:14:00;4.28;;;3.05;;
65463;SDS011;52063;45.110;9.870;2023-02-28T14:16:27;3.80;;;3.13;;
65463;SDS011;52063;45.110;9.870;2023-02-28T14:21:38;3.80;;;2.67;;
65463;SDS011;52063;45.110;9.870;2023-02-28T14:32:50;3.73;;;3.07;;
65463;SDS011;52063;45.110;9.870;2023-02-28T14:37:51;3.05;;;2.85;;
65463;SDS011;52063;45.110;9.870;2023-02-28T14:40:17;4.22;;;2.60;;
65463;SDS011;52063;45.110;9.870;2023-02-28T14:42:48;4.17;;;2.97;;
65463;SDS011;52063;45.110;9.870;2023-02-28T14:45:20;3.33;;;2.70;;
65463;SDS011;52063;45.110;9.870;2023-02-28T14:47:47;3.83;;;3.13;;
65463;SDS011;52063;45.110;9.870;2023-02-28T14:50:17;4.40;;;3.15;;
65463;SDS011;52063;45.110;9.870;2023-02-28T14:52:44;3.25;;;2.85;;
65463;SDS011;52063;45.110;9.870;2023-02-28T14:55:12;3.20;;;2.70;;
65463;SDS011;52063;45.110;9.870;2023-02-28T14:57:41;3.97;;;2.90;;
65463;SDS011;52063;45.110;9.870;2023-02-28T15:00:18;3.08;;;2.78;;
65463;SDS011;52063;45.110;9.870;2023-02-28T15:02:47;4.22;;;2.83;;
65463;SDS011;52063;45.110;9.870;2023-02-28T15:07:38;5.10;;;2.90;;
65463;SDS011;52063;45.110;9.870;2023-02-28T15:12:41;3.20;;;2.83;;
65463;SDS011;52063;45.110;9.870;2023-02-28T15:20:59;3.35;;;3.03;;
65463;SDS011;52063;45.110;9.870;2023-02-28T15:23:28;3.47;;;2.93;;
65463;SDS011;52063;45.110;9.870;2023-02-28T15:25:54;3.83;;;3.05;;
65463;SDS011;52063;45.110;9.870;2023-02-28T15:28:20;2.83;;;2.50;;
65463;SDS011;52063;45.110;9.870;2023-02-28T15:30:54;3.00;;;2.70;;
65463;SDS011;52063;45.110;9.870;2023-02-28T15:33:21;3.30;;;2.67;;
65463;SDS011;52063;45.110;9.870;2023-02-28T15:35:51;3.03;;;2.60;;
65463;SDS011;52063;45.110;9.870;2023-02-28T15:38:27;3.42;;;2.72;;
65463;SDS011;52063;45.110;9.870;2023-02-28T15:40:54;2.80;;;2.60;;
65463;SDS011;52063;45.110;9.870;2023-02-28T15:43:24;3.20;;;2.35;;
65463;SDS011;52063;45.110;9.870;2023-02-28T15:50:47;3.00;;;2.63;;
65463;SDS011;52063;45.110;9.870;2023-02-28T15:53:16;3.00;;;2.70;;
65463;SDS011;52063;45.110;9.870;2023-02-28T15:55:43;4.05;;;2.50;;
65463;SDS011;52063;45.110;9.870;2023-02-28T15:58:09;3.67;;;3.00;;
65463;SDS011;52063;45.110;9.870;2023-02-28T16:00:38;3.15;;;2.70;;
65463;SDS011;52063;45.110;9.870;2023-02-28T16:03:26;3.27;;;2.93;;
65463;SDS011;52063;45.110;9.870;2023-02-28T16:06:08;2.67;;;2.47;;
65463;SDS011;52063;45.110;9.870;2023-02-28T16:08:35;3.00;;;2.80;;
65463;SDS011;52063;45.110;9.870;2023-02-28T16:11:00;2.87;;;2.40;;
65463;SDS011;52063;45.110;9.870;2023-02-28T16:13:26;3.30;;;3.00;;
65463;SDS011;52063;45.110;9.870;2023-02-28T16:15:51;4.20;;;2.90;;
65463;SDS011;52063;45.110;9.870;2023-02-28T16:18:17;3.13;;;2.80;;
65463;SDS011;52063;45.110;9.870;2023-02-28T16:20:42;2.60;;;2.40;;
65463;SDS011;52063;45.110;9.870;2023-02-28T16:23:09;4.13;;;3.10;;
65463;SDS011;52063;45.110;9.870;2023-02-28T16:25:42;2.90;;;2.60;;
65463;SDS011;52063;45.110;9.870;2023-02-28T16:28:29;2.70;;;2.50;;
65463;SDS011;52063;45.110;9.870;2023-02-28T16:30:57;3.20;;;2.80;;
65463;SDS011;52063;45.110;9.870;2023-02-28T16:33:24;2.75;;;2.55;;
65463;SDS011;52063;45.110;9.870;2023-02-28T16:35:50;3.13;;;2.17;;
65463;SDS011;52063;45.110;9.870;2023-02-28T16:38:15;2.93;;;2.53;;
65463;SDS011;52063;45.110;9.870;2023-02-28T16:40:41;3.13;;;2.83;;
65463;SDS011;52063;45.110;9.870;2023-02-28T16:43:17;2.90;;;2.70;;
65463;SDS011;52063;45.110;9.870;2023-02-28T16:45:44;2.83;;;2.50;;
65463;SDS011;52063;45.110;9.870;2023-02-28T16:48:14;3.37;;;2.97;;
65463;SDS011;52063;45.110;9.870;2023-02-28T16:50:41;3.40;;;3.10;;
65463;SDS011;52063;45.110;9.870;2023-02-28T16:53:07;3.15;;;2.72;;
65463;SDS011;52063;45.110;9.870;2023-02-28T16:55:33;2.80;;;2.43;;
65463;SDS011;52063;45.110;9.870;2023-02-28T16:58:00;3.00;;;2.70;;
65463;SDS011;52063;45.110;9.870;2023-02-28T17:00:27;3.10;;;2.63;;
65463;SDS011;52063;45.110;9.870;2023-02-28T17:02:53;2.53;;;2.33;;
65463;SDS011;52063;45.110;9.870;2023-02-28T17:05:19;2.73;;;2.30;;
65463;SDS011;52063;45.110;9.870;2023-02-28T17:07:45;3.05;;;2.45;;
65463;SDS011;52063;45.110;9.870;2023-02-28T17:10:18;2.60;;;2.40;;
65463;SDS011;52063;45.110;9.870;2023-02-28T17:12:49;3.17;;;2.65;;
65463;SDS011;52063;45.110;9.870;2023-02-28T17:15:17;2.63;;;2.42;;
65463;SDS011;52063;45.110;9.870;2023-02-28T17:17:43;2.53;;;2.33;;
65463;SDS011;52063;45.110;9.870;2023-02-28T17:20:20;2.75;;;2.30;;
65463;SDS011;52063;45.110;9.870;2023-02-28T17:22:51;2.83;;;2.38;;
65463;SDS011;52063;45.110;9.870;2023-02-28T17:25:17;2.50;;;2.30;;
65463;SDS011;52063;45.110;9.870;2023-02-28T17:27:43;2.60;;;2.40;;
65463;SDS011;52063;45.110;9.870;2023-02-28T17:30:31;2.70;;;2.50;;